createdAt,value
2022-10-08T00:03:54.785Z,83.78
2022-10-08T00:09:00.684Z,84.04
2022-10-08T00:14:04.783Z,84.16
2022-10-08T00:19:12.122Z,84.13
2022-10-08T00:24:17.206Z,84.05
2022-10-08T00:29:22.403Z,84.36
2022-10-08T00:34:25.640Z,84.54
2022-10-08T00:39:28.347Z,84.73
2022-10-08T00:44:51.418Z,84.82
2022-10-08T00:49:58.230Z,85.07
2022-10-08T00:55:06.868Z,85.13
2022-10-08T01:00:20.285Z,85.37
2022-10-08T01:05:55.339Z,85.45
2022-10-08T01:11:30.730Z,85.54
2022-10-08T01:16:48.552Z,85.52
2022-10-08T01:22:07.211Z,85.64
2022-10-08T01:27:20.887Z,85.55
2022-10-08T01:32:29.785Z,85.84
2022-10-08T01:37:38.811Z,85.79
2022-10-08T01:42:41.849Z,85.98
2022-10-08T01:47:47.467Z,85.93
2022-10-08T01:52:58.915Z,85.99
2022-10-08T01:58:19.126Z,86.07
2022-10-08T02:03:22.167Z,85.83
2022-10-08T02:08:25.237Z,86.16
2022-10-08T02:13:27.986Z,86.24
2022-10-08T02:18:46.282Z,86.31
2022-10-08T02:23:58.786Z,86.87
2022-10-08T02:29:10.216Z,87.64
2022-10-08T02:34:20.692Z,87.76
2022-10-08T02:39:27.210Z,87.98
2022-10-08T02:44:42.469Z,87.94
2022-10-08T02:49:52.866Z,87.93
2022-10-08T02:55:00.513Z,87.98
2022-10-08T03:00:04.593Z,88.12
2022-10-08T03:05:14.264Z,87.96
2022-10-08T03:10:18.415Z,87.96
2022-10-08T03:15:21.112Z,87.96
2022-10-08T03:20:24.197Z,88.02
2022-10-08T03:25:26.891Z,88.13
2022-10-08T03:30:29.722Z,88.26
2022-10-08T03:35:32.440Z,88.29
2022-10-08T03:40:35.115Z,87.99
2022-10-08T03:45:37.788Z,88.10
2022-10-08T03:50:40.496Z,88.39
2022-10-08T03:55:43.145Z,88.78
2022-10-08T04:01:06.153Z,89.21
2022-10-08T04:06:08.965Z,89.68
2022-10-08T04:11:15.939Z,89.82
2022-10-08T04:16:20.006Z,89.98
2022-10-08T04:21:22.727Z,90.03
2022-10-08T04:26:25.393Z,90.23
2022-10-08T04:31:28.113Z,90.51
2022-10-08T04:36:30.875Z,90.53
2022-10-08T04:41:33.528Z,90.73
2022-10-08T04:46:36.335Z,90.92
2022-10-08T04:51:39.191Z,91.14
2022-10-08T04:56:41.929Z,91.57
2022-10-08T05:01:44.713Z,91.88
2022-10-08T05:06:47.461Z,91.98
2022-10-08T05:11:51.539Z,91.85
2022-10-08T05:16:54.266Z,91.86
2022-10-08T05:21:57.024Z,91.82
2022-10-08T05:26:59.739Z,91.82
2022-10-08T05:32:03.421Z,91.93
2022-10-08T05:37:06.134Z,91.73
2022-10-08T05:42:08.795Z,91.71
2022-10-08T05:47:11.549Z,91.78
2022-10-08T05:52:14.256Z,91.58
2022-10-08T05:57:16.936Z,91.53
2022-10-08T06:02:19.881Z,91.49
2022-10-08T06:07:22.691Z,90.97
2022-10-08T06:12:25.418Z,90.89
2022-10-08T06:17:28.129Z,90.79
2022-10-08T06:22:31.520Z,90.32
2022-10-08T06:27:34.305Z,89.45
2022-10-08T06:32:36.998Z,89.29
2022-10-08T06:37:41.630Z,88.33
2022-10-08T06:42:44.542Z,87.53
2022-10-08T06:47:47.620Z,86.61
2022-10-08T06:52:50.387Z,86.47
2022-10-08T06:57:53.162Z,86.27
2022-10-08T07:02:57.331Z,86.39
2022-10-08T07:08:00.097Z,86.09
2022-10-08T07:13:02.801Z,85.96
2022-10-08T07:18:05.565Z,85.66
2022-10-08T07:23:08.273Z,85.34
2022-10-08T07:28:11.053Z,85.17
2022-10-08T07:33:13.940Z,84.62
2022-10-08T07:38:19.806Z,83.85
2022-10-08T07:43:22.478Z,80.43
2022-10-08T07:48:25.345Z,75.81
2022-10-08T07:53:28.204Z,71.39
2022-10-08T07:58:31.254Z,68.29
2022-10-08T08:03:34.397Z,66.67
2022-10-08T08:08:39.345Z,65.10
2022-10-08T08:13:43.069Z,61.46
2022-10-08T08:18:48.973Z,59.63
2022-10-08T08:23:55.867Z,60.22
2022-10-08T08:29:02.103Z,58.21
2022-10-08T08:34:09.318Z,57.24
2022-10-08T08:39:18.799Z,57.78
2022-10-08T08:44:28.944Z,57.98
2022-10-08T08:49:58.549Z,56.90
2022-10-08T08:55:02.052Z,56.29
2022-10-08T09:00:16.241Z,55.07
2022-10-08T09:05:20.707Z,55.47
2022-10-08T09:11:07.144Z,55.29
2022-10-08T09:16:13.982Z,56.49
2022-10-08T09:21:17.795Z,56.45
2022-10-08T09:26:30.469Z,56.17
2022-10-08T09:31:39.293Z,55.81
2022-10-08T09:36:41.945Z,55.56
2022-10-08T09:42:04.558Z,55.59
2022-10-08T09:47:12.088Z,56.24
2022-10-08T09:52:27.551Z,57.09
2022-10-08T09:57:33.646Z,57.71
2022-10-08T10:02:37.540Z,57.77
2022-10-08T10:07:43.979Z,58.35
2022-10-08T10:12:52.965Z,59.00
2022-10-08T10:18:11.450Z,59.23
2022-10-08T10:23:21.888Z,58.93
2022-10-08T10:28:27.451Z,57.86
2022-10-08T10:33:34.296Z,57.84
2022-10-08T10:38:46.246Z,57.66
2022-10-08T10:44:01.519Z,58.62
2022-10-08T10:49:14.868Z,59.24
2022-10-08T10:54:40.341Z,59.21
2022-10-08T10:59:58.218Z,60.15
2022-10-08T11:05:05.910Z,60.90
2022-10-08T11:10:15.451Z,61.40
2022-10-08T11:15:30.398Z,61.25
2022-10-08T11:20:50.481Z,61.14
2022-10-08T11:26:21.514Z,61.25
2022-10-08T11:31:40.513Z,61.45
2022-10-08T11:37:09.529Z,61.72
2022-10-08T11:42:51.060Z,62.24
2022-10-08T11:47:57.494Z,62.41
2022-10-08T11:53:15.209Z,62.55
2022-10-08T11:58:23.863Z,62.74
2022-10-08T12:03:31.267Z,63.14
2022-10-08T12:08:51.674Z,63.33
2022-10-08T12:14:13.375Z,63.95
2022-10-08T12:19:35.277Z,63.99
2022-10-08T12:24:38.698Z,63.71
2022-10-08T12:30:04.524Z,63.77
2022-10-08T12:35:27.495Z,63.50
2022-10-08T12:40:42.133Z,63.53
2022-10-08T12:46:29.968Z,63.46
2022-10-08T12:51:50.157Z,63.33
2022-10-08T12:56:53.512Z,63.24
2022-10-08T13:01:56.320Z,63.65
2022-10-08T13:06:59.439Z,64.23
2022-10-08T13:12:05.927Z,64.52
2022-10-08T13:17:28.374Z,64.99
2022-10-08T13:22:31.218Z,65.62
2022-10-08T13:27:34.443Z,65.98
2022-10-08T13:32:39.628Z,66.30
2022-10-08T13:37:52.687Z,65.88
2022-10-08T13:42:58.411Z,66.06
2022-10-08T13:48:01.124Z,66.74
2022-10-08T13:53:04.592Z,67.04
2022-10-08T13:58:07.583Z,67.74
2022-10-08T14:03:11.085Z,68.24
2022-10-08T14:08:17.754Z,69.05
2022-10-08T14:13:20.900Z,68.92
2022-10-08T14:18:23.804Z,68.72
2022-10-08T14:23:27.431Z,67.93
2022-10-08T14:28:30.254Z,66.67
2022-10-08T14:33:33.188Z,65.76
2022-10-08T14:38:36.687Z,66.07
2022-10-08T14:43:41.068Z,65.91
2022-10-08T14:48:44.188Z,65.82
2022-10-08T14:53:46.940Z,66.60
2022-10-08T14:58:49.631Z,67.18
2022-10-08T15:03:53.767Z,67.79
2022-10-08T15:08:58.164Z,68.00
2022-10-08T15:14:01.640Z,68.25
2022-10-08T15:19:08.160Z,68.51
2022-10-08T15:24:10.866Z,68.75
2022-10-08T15:29:13.632Z,69.02
2022-10-08T15:34:17.840Z,69.25
2022-10-08T15:39:20.776Z,69.61
2022-10-08T15:44:27.132Z,70.01
2022-10-08T15:49:37.239Z,70.44
2022-10-08T15:54:41.263Z,70.79
2022-10-08T15:59:44.986Z,71.40
2022-10-08T16:04:48.345Z,71.68
2022-10-08T16:09:51.229Z,71.96
2022-10-08T16:14:53.935Z,72.19
2022-10-08T16:19:56.708Z,72.36
2022-10-08T16:24:59.385Z,72.35
2022-10-08T16:30:02.288Z,72.20
2022-10-08T16:35:07.857Z,72.22
2022-10-08T16:40:11.165Z,72.40
2022-10-08T16:45:13.960Z,72.85
2022-10-08T16:50:16.775Z,73.37
2022-10-08T16:55:19.483Z,73.94
2022-10-08T17:00:22.254Z,74.17
2022-10-08T17:05:25.552Z,74.67
2022-10-08T17:10:29.368Z,74.70
2022-10-08T17:15:32.141Z,74.73
2022-10-08T17:20:35.016Z,74.83
2022-10-08T17:25:37.667Z,74.95
2022-10-08T17:30:40.437Z,75.24
2022-10-08T17:35:43.835Z,75.41
2022-10-08T17:40:46.872Z,75.82
2022-10-08T17:45:50.754Z,76.01
2022-10-08T17:50:53.575Z,76.29
2022-10-08T17:56:05.400Z,76.40
2022-10-08T18:01:14.211Z,76.42
2022-10-08T18:06:18.494Z,76.55
2022-10-08T18:11:21.676Z,76.87
2022-10-08T18:16:28.104Z,76.93
2022-10-08T18:21:30.932Z,77.09
2022-10-08T18:26:36.863Z,77.52
2022-10-08T18:31:42.192Z,77.81
2022-10-08T18:36:46.065Z,77.85
2022-10-08T18:41:51.475Z,78.17
2022-10-08T18:46:54.439Z,79.07
2022-10-08T18:51:57.786Z,79.82
2022-10-08T18:57:00.533Z,80.21
2022-10-08T19:02:03.323Z,80.33
2022-10-08T19:07:06.604Z,80.82
2022-10-08T19:12:09.677Z,80.83
2022-10-08T19:17:12.764Z,80.96
2022-10-08T19:22:15.514Z,81.20
2022-10-08T19:27:18.272Z,81.41
2022-10-08T19:32:21.507Z,81.47
2022-10-08T19:37:24.837Z,81.55
2022-10-08T19:42:27.667Z,81.65
2022-10-08T19:47:30.430Z,81.91
2022-10-08T19:52:33.115Z,82.18
2022-10-08T19:57:36.732Z,82.84
2022-10-08T20:02:39.481Z,83.07
2022-10-08T20:07:42.231Z,83.53
2022-10-08T20:12:45.918Z,84.06
2022-10-08T20:17:50.760Z,84.51
2022-10-08T20:22:53.530Z,84.75
2022-10-08T20:27:57.153Z,85.31
2022-10-08T20:32:59.847Z,85.78
2022-10-08T20:38:02.609Z,86.07
2022-10-08T20:43:05.362Z,86.46
2022-10-08T20:48:08.097Z,86.91
2022-10-08T20:53:10.897Z,87.38
2022-10-08T20:58:13.651Z,88.30
2022-10-08T21:03:16.364Z,88.33
2022-10-08T21:08:19.501Z,88.62
2022-10-08T21:13:22.301Z,88.93
2022-10-08T21:18:25.013Z,89.29
2022-10-08T21:23:27.692Z,89.45
2022-10-08T21:28:30.442Z,89.83
2022-10-08T21:33:38.018Z,90.22
2022-10-08T21:38:41.553Z,90.63
2022-10-08T21:43:46.601Z,90.62
2022-10-08T21:49:01.264Z,90.65
2022-10-08T21:54:06.504Z,90.77
2022-10-08T21:59:13.097Z,90.95
2022-10-08T22:04:21.940Z,91.08
2022-10-08T22:09:27.422Z,91.00
2022-10-08T22:14:30.926Z,91.41
2022-10-08T22:19:36.024Z,91.04
2022-10-08T22:24:38.961Z,90.97
2022-10-08T22:29:41.730Z,90.98
2022-10-08T22:34:44.372Z,90.55
2022-10-08T22:39:47.086Z,89.95
2022-10-08T22:44:49.745Z,89.65
2022-10-08T22:49:52.422Z,89.47
2022-10-08T22:54:55.069Z,89.27
2022-10-08T22:59:57.723Z,89.36
2022-10-08T23:05:00.422Z,89.47
2022-10-08T23:10:04.730Z,89.49
2022-10-08T23:15:08.225Z,89.08
2022-10-08T23:20:10.977Z,88.99
2022-10-08T23:25:13.788Z,88.77
2022-10-08T23:30:41.086Z,88.92
2022-10-08T23:35:39.164Z,88.82
2022-10-08T23:40:41.949Z,88.97
2022-10-08T23:45:44.772Z,89.09
2022-10-08T23:50:51.868Z,89.35
2022-10-08T23:55:54.555Z,89.64
